createdAt,value
2022-12-08T00:02:49.660Z,18.45
2022-12-08T00:06:10.903Z,18.40
2022-12-08T00:09:24.315Z,18.36
2022-12-08T00:12:26.840Z,18.32
2022-12-08T00:15:28.727Z,18.29
2022-12-08T00:18:31.157Z,18.26
2022-12-08T00:21:33.661Z,18.25
2022-12-08T00:24:39.960Z,18.19
2022-12-08T00:27:42.041Z,18.15
2022-12-08T00:30:44.570Z,18.06
2022-12-08T00:33:46.647Z,18.09
2022-12-08T00:36:50.550Z,18.05
2022-12-08T00:39:52.807Z,18.09
2022-12-08T00:42:55.776Z,18.13
2022-12-08T00:45:58.040Z,18.10
2022-12-08T00:49:02.496Z,18.13
2022-12-08T00:52:05.057Z,17.96
2022-12-08T00:55:07.803Z,17.57
2022-12-08T00:58:10.665Z,17.79
2022-12-08T01:01:15.333Z,17.47
2022-12-08T01:04:20.334Z,14.01
2022-12-08T01:07:22.654Z,7.95
2022-12-08T01:10:24.514Z,7.42
2022-12-08T01:13:27.386Z,7.48
2022-12-08T01:16:32.295Z,10.88
2022-12-08T01:19:34.645Z,14.95
2022-12-08T01:22:36.647Z,16.18
2022-12-08T01:25:39.482Z,16.77
2022-12-08T01:28:42.788Z,17.02
2022-12-08T01:31:45.657Z,17.19
2022-12-08T01:34:47.718Z,17.21
2022-12-08T01:37:51.024Z,17.33
2022-12-08T01:40:53.004Z,17.44
2022-12-08T01:43:55.466Z,17.41
2022-12-08T01:46:57.453Z,17.40
2022-12-08T01:50:02.402Z,17.40
2022-12-08T01:53:14.544Z,17.55
2022-12-08T01:56:24.619Z,11.90
2022-12-08T01:59:28.775Z,13.12
2022-12-08T02:02:38.758Z,15.80
2022-12-08T02:05:42.437Z,16.82
2022-12-08T02:08:46.218Z,17.06
2022-12-08T02:11:51.091Z,17.16
2022-12-08T02:14:54.448Z,17.28
2022-12-08T02:18:32.956Z,17.31
2022-12-08T02:21:45.736Z,17.37
2022-12-08T02:24:54.773Z,17.35
2022-12-08T02:28:29.115Z,17.31
2022-12-08T02:31:57.875Z,17.34
2022-12-08T02:35:11.023Z,17.33
2022-12-08T02:38:50.691Z,17.37
2022-12-08T02:42:15.413Z,17.44
2022-12-08T02:45:22.749Z,17.35
2022-12-08T02:48:28.559Z,17.34
2022-12-08T02:51:31.111Z,17.10
2022-12-08T02:54:34.633Z,16.80
2022-12-08T02:57:56.763Z,17.17
2022-12-08T03:01:42.457Z,17.27
2022-12-08T03:04:47.398Z,16.94
2022-12-08T03:08:13.917Z,17.02
2022-12-08T03:11:49.422Z,13.70
2022-12-08T03:14:56.736Z,11.58
2022-12-08T03:18:01.577Z,11.59
2022-12-08T03:21:05.375Z,14.82
2022-12-08T03:24:09.717Z,15.88
2022-12-08T03:27:23.924Z,16.44
2022-12-08T03:30:29.536Z,16.70
2022-12-08T03:33:37.323Z,16.82
2022-12-08T03:36:39.270Z,16.96
2022-12-08T03:39:43.431Z,17.10
2022-12-08T03:42:45.689Z,16.05
2022-12-08T03:45:48.270Z,15.77
2022-12-08T03:48:50.583Z,16.49
2022-12-08T03:51:53.597Z,11.31
2022-12-08T03:54:55.926Z,9.88
2022-12-08T03:57:58.464Z,8.73
2022-12-08T04:01:00.380Z,6.74
2022-12-08T04:04:03.381Z,6.22
2022-12-08T04:07:06.153Z,7.91
2022-12-08T04:10:09.237Z,5.76
2022-12-08T04:13:11.159Z,5.38
2022-12-08T04:16:19.462Z,5.49
2022-12-08T04:19:21.502Z,5.71
2022-12-08T04:22:23.866Z,6.48
2022-12-08T04:25:26.482Z,6.91
2022-12-08T04:28:29.900Z,7.67
2022-12-08T04:31:32.414Z,7.77
2022-12-08T04:34:35.278Z,8.41
2022-12-08T04:37:37.583Z,9.04
2022-12-08T04:40:39.893Z,10.43
2022-12-08T04:43:44.653Z,12.55
2022-12-08T04:46:47.581Z,14.04
2022-12-08T04:49:50.098Z,14.75
2022-12-08T04:52:52.663Z,15.39
2022-12-08T04:55:56.030Z,15.75
2022-12-08T04:58:58.908Z,15.94
2022-12-08T05:02:02.700Z,16.08
2022-12-08T05:05:06.271Z,16.17
2022-12-08T05:08:09.449Z,16.17
2022-12-08T05:11:13.243Z,16.22
2022-12-08T05:14:17.956Z,16.28
2022-12-08T05:17:21.437Z,16.36
2022-12-08T05:20:23.483Z,16.44
2022-12-08T05:23:27.049Z,16.45
2022-12-08T05:26:29.790Z,16.53
2022-12-08T05:29:32.125Z,16.55
2022-12-08T05:32:34.146Z,16.60
2022-12-08T05:35:36.595Z,16.63
2022-12-08T05:38:38.972Z,16.65
2022-12-08T05:41:42.218Z,16.65
2022-12-08T05:44:44.718Z,16.66
2022-12-08T05:47:46.978Z,16.72
2022-12-08T05:50:50.569Z,16.75
2022-12-08T05:53:57.353Z,16.82
2022-12-08T05:57:00.016Z,16.83
2022-12-08T06:00:04.022Z,16.84
2022-12-08T06:03:15.233Z,16.87
2022-12-08T06:06:17.742Z,16.84
2022-12-08T06:09:19.769Z,16.86
2022-12-08T06:12:22.318Z,16.89
2022-12-08T06:15:24.251Z,16.94
2022-12-08T06:18:32.508Z,16.93
2022-12-08T06:21:34.924Z,16.96
2022-12-08T06:24:38.218Z,16.94
2022-12-08T06:27:40.223Z,16.97
2022-12-08T06:30:42.933Z,16.96
2022-12-08T06:33:45.732Z,16.94
2022-12-08T06:36:48.062Z,16.92
2022-12-08T06:39:50.599Z,16.93
2022-12-08T06:42:52.942Z,16.93
2022-12-08T06:45:55.574Z,16.96
2022-12-08T06:48:59.075Z,17.02
2022-12-08T06:52:02.017Z,17.00
2022-12-08T06:55:05.274Z,17.02
2022-12-08T06:58:07.238Z,17.06
2022-12-08T07:01:13.782Z,17.14
2022-12-08T07:04:15.741Z,17.07
2022-12-08T07:07:18.343Z,16.39
2022-12-08T07:10:20.448Z,16.84
2022-12-08T07:13:22.887Z,17.06
2022-12-08T07:16:25.950Z,17.11
2022-12-08T07:19:28.398Z,17.16
2022-12-08T07:22:31.010Z,17.13
2022-12-08T07:25:34.139Z,17.14
2022-12-08T07:28:38.507Z,17.14
2022-12-08T07:31:41.019Z,17.14
2022-12-08T07:34:43.588Z,17.13
2022-12-08T07:37:47.553Z,17.11
2022-12-08T07:40:49.666Z,17.11
2022-12-08T07:43:53.953Z,17.10
2022-12-08T07:46:57.285Z,17.11
2022-12-08T07:50:00.653Z,17.10
2022-12-08T07:53:03.564Z,17.10
2022-12-08T07:56:08.442Z,17.16
2022-12-08T07:59:11.126Z,17.20
2022-12-08T08:02:25.182Z,17.27
2022-12-08T08:05:27.574Z,17.37
2022-12-08T08:08:32.289Z,17.45
2022-12-08T08:11:34.825Z,17.47
2022-12-08T08:14:37.539Z,17.47
2022-12-08T08:17:41.910Z,17.45
2022-12-08T08:20:46.377Z,17.43
2022-12-08T08:23:48.686Z,17.43
2022-12-08T08:26:53.943Z,17.38
2022-12-08T08:29:55.899Z,17.43
2022-12-08T08:32:58.339Z,17.44
2022-12-08T08:36:00.699Z,17.45
2022-12-08T08:39:04.232Z,17.45
2022-12-08T08:42:06.403Z,17.44
2022-12-08T08:45:09.446Z,17.45
2022-12-08T08:48:11.684Z,17.53
2022-12-08T08:51:15.150Z,17.57
2022-12-08T08:54:18.578Z,17.61
2022-12-08T08:57:25.465Z,17.57
2022-12-08T09:00:28.205Z,17.64
2022-12-08T09:03:32.653Z,10.97
2022-12-08T09:06:34.994Z,12.33
2022-12-08T09:09:39.683Z,15.23
2022-12-08T09:12:42.088Z,16.45
2022-12-08T09:15:44.728Z,16.90
2022-12-08T09:18:51.993Z,17.04
2022-12-08T09:21:54.887Z,17.14
2022-12-08T09:24:57.963Z,17.28
2022-12-08T09:28:00.489Z,17.34
2022-12-08T09:31:04.117Z,17.35
2022-12-08T09:34:06.821Z,17.40
2022-12-08T09:37:09.352Z,17.40
2022-12-08T09:40:17.794Z,17.41
2022-12-08T09:43:22.723Z,17.37
2022-12-08T09:46:29.282Z,17.37
2022-12-08T09:50:08.330Z,17.43
2022-12-08T09:53:21.316Z,17.44
2022-12-08T09:56:27.788Z,17.43
2022-12-08T09:59:34.771Z,17.44
2022-12-08T10:02:36.941Z,17.44
2022-12-08T10:05:46.903Z,17.44
2022-12-08T10:09:01.125Z,17.53
2022-12-08T10:12:34.218Z,17.54
2022-12-08T10:16:04.786Z,17.51
2022-12-08T10:19:13.714Z,17.58
2022-12-08T10:22:22.069Z,17.53
2022-12-08T10:25:38.583Z,17.51
2022-12-08T10:28:44.805Z,17.48
2022-12-08T10:31:48.080Z,17.47
2022-12-08T10:35:21.491Z,17.50
2022-12-08T10:38:38.962Z,17.51
2022-12-08T10:41:41.252Z,17.50
2022-12-08T10:45:21.517Z,17.54
2022-12-08T10:48:29.299Z,17.73
2022-12-08T10:51:34.417Z,17.65
2022-12-08T10:54:39.262Z,17.65
2022-12-08T10:57:41.670Z,17.63
2022-12-08T11:00:44.209Z,17.61
2022-12-08T11:04:00.079Z,17.61
2022-12-08T11:07:05.140Z,17.61
2022-12-08T11:10:18.358Z,17.63
2022-12-08T11:13:26.578Z,17.58
2022-12-08T11:16:29.170Z,17.70
2022-12-08T11:19:31.643Z,17.73
2022-12-08T11:22:38.634Z,17.74
2022-12-08T11:25:41.778Z,17.57
2022-12-08T11:28:44.683Z,12.88
2022-12-08T11:31:58.254Z,13.57
2022-12-08T11:35:06.792Z,11.49
2022-12-08T11:38:22.565Z,8.21
2022-12-08T11:41:40.829Z,7.78
2022-12-08T11:44:55.877Z,7.66
2022-12-08T11:48:07.045Z,9.51
2022-12-08T11:51:18.971Z,13.81
2022-12-08T11:54:25.789Z,15.33
2022-12-08T11:57:30.153Z,16.28
2022-12-08T12:00:32.963Z,16.83
2022-12-08T12:03:43.661Z,16.96
2022-12-08T12:07:10.029Z,17.06
2022-12-08T12:10:17.786Z,17.19
2022-12-08T12:13:42.135Z,17.28
2022-12-08T12:17:06.271Z,17.33
2022-12-08T12:20:28.350Z,17.38
2022-12-08T12:23:48.188Z,17.47
2022-12-08T12:27:00.325Z,17.51
2022-12-08T12:30:07.124Z,17.53
2022-12-08T12:33:15.842Z,17.50
2022-12-08T12:36:19.754Z,17.40
2022-12-08T12:39:51.002Z,17.40
2022-12-08T12:42:55.625Z,17.34
2022-12-08T12:46:27.263Z,17.38
2022-12-08T12:49:43.898Z,17.37
2022-12-08T12:52:48.381Z,17.40
2022-12-08T12:55:57.589Z,17.45
2022-12-08T12:59:32.829Z,17.40
2022-12-08T13:02:39.045Z,17.37
2022-12-08T13:05:53.026Z,17.45
2022-12-08T13:08:57.303Z,17.58
2022-12-08T13:12:09.545Z,17.60
2022-12-08T13:15:22.566Z,17.61
2022-12-08T13:18:49.138Z,17.84
2022-12-08T13:21:51.444Z,17.94
2022-12-08T13:24:54.350Z,18.05
2022-12-08T13:27:56.433Z,18.19
2022-12-08T13:31:00.813Z,18.24
2022-12-08T13:34:23.583Z,18.29
2022-12-08T13:37:37.075Z,18.29
2022-12-08T13:40:45.137Z,18.37
2022-12-08T13:45:03.633Z,18.45
2022-12-08T13:58:26.546Z,18.06
2022-12-08T14:01:29.139Z,17.99
2022-12-08T14:05:16.725Z,17.92
2022-12-08T14:07:56.917Z,17.88
2022-12-08T14:11:05.857Z,17.84
2022-12-08T14:14:32.766Z,17.81
2022-12-08T14:17:41.705Z,17.75
2022-12-08T14:21:12.595Z,17.73
2022-12-08T14:24:10.966Z,17.71
2022-12-08T14:27:19.701Z,17.74
2022-12-08T14:30:29.111Z,17.70
2022-12-08T14:33:32.335Z,17.71
2022-12-08T14:36:36.678Z,17.77
2022-12-08T14:39:39.612Z,17.78
2022-12-08T14:42:51.917Z,17.77
2022-12-08T14:46:05.824Z,17.74
2022-12-08T14:49:32.827Z,17.70
2022-12-08T14:52:35.574Z,17.67
2022-12-08T14:55:38.955Z,17.71
2022-12-08T14:58:42.632Z,17.65
2022-12-08T15:01:48.426Z,17.60
2022-12-08T15:04:57.747Z,17.57
2022-12-08T15:08:04.367Z,17.57
2022-12-08T15:11:22.482Z,17.57
2022-12-08T15:14:33.425Z,17.55
2022-12-08T15:17:44.167Z,17.50
2022-12-08T15:20:57.351Z,17.51
2022-12-08T15:24:00.790Z,17.50
2022-12-08T15:27:04.830Z,17.55
2022-12-08T15:30:13.862Z,17.50
2022-12-08T15:33:16.995Z,17.48
2022-12-08T15:36:20.631Z,17.48
2022-12-08T15:39:36.038Z,17.45
2022-12-08T15:42:39.084Z,17.47
2022-12-08T15:45:54.835Z,17.44
2022-12-08T15:49:01.248Z,17.43
2022-12-08T15:52:11.559Z,17.40
2022-12-08T15:55:21.906Z,17.41
2022-12-08T16:01:55.260Z,17.40
2022-12-08T16:05:40.174Z,17.37
2022-12-08T16:08:45.002Z,17.35
2022-12-08T16:12:09.499Z,17.35
2022-12-08T16:18:40.816Z,17.35
2022-12-08T16:25:18.203Z,17.30
2022-12-08T16:28:52.847Z,17.31
2022-12-08T16:31:45.439Z,17.26
2022-12-08T16:34:48.930Z,17.27
2022-12-08T16:37:52.751Z,17.28
2022-12-08T16:41:14.013Z,17.30
2022-12-08T16:44:18.418Z,17.26
2022-12-08T16:47:21.977Z,17.28
2022-12-08T16:50:28.170Z,17.28
2022-12-08T16:53:31.265Z,17.30
2022-12-08T16:56:38.147Z,17.35
2022-12-08T16:59:41.763Z,17.24
2022-12-08T17:02:45.652Z,17.26
2022-12-08T17:05:48.254Z,17.27
2022-12-08T17:08:53.578Z,17.28
2022-12-08T17:12:03.309Z,17.21
2022-12-08T17:15:12.856Z,17.04
2022-12-08T17:18:15.267Z,17.09
2022-12-08T17:21:21.002Z,17.04
2022-12-08T17:24:25.382Z,16.90
2022-12-08T17:27:29.645Z,17.14
2022-12-08T17:30:35.893Z,17.19
2022-12-08T17:33:40.943Z,17.31
2022-12-08T17:36:43.610Z,17.31
2022-12-08T17:39:47.390Z,17.38
2022-12-08T17:42:49.695Z,17.40
2022-12-08T17:45:52.303Z,17.45
2022-12-08T17:48:55.715Z,17.43
2022-12-08T17:52:02.022Z,17.41
2022-12-08T17:55:06.953Z,17.44
2022-12-08T17:58:09.697Z,17.47
2022-12-08T18:01:12.157Z,17.41
2022-12-08T18:04:14.841Z,17.38
2022-12-08T18:07:17.969Z,17.34
2022-12-08T18:10:22.628Z,17.30
2022-12-08T18:13:24.707Z,17.24
2022-12-08T18:16:29.132Z,17.26
2022-12-08T18:19:31.769Z,17.24
2022-12-08T18:22:34.613Z,17.23
2022-12-08T18:25:37.349Z,17.20
2022-12-08T18:28:40.279Z,17.17
2022-12-08T18:31:42.338Z,17.19
2022-12-08T18:34:45.444Z,17.14
2022-12-08T18:37:47.858Z,17.17
2022-12-08T18:40:51.393Z,17.13
2022-12-08T18:43:55.999Z,17.02
2022-12-08T18:46:58.643Z,15.77
2022-12-08T18:50:00.841Z,15.24
2022-12-08T18:53:03.392Z,15.84
2022-12-08T18:56:06.582Z,16.45
2022-12-08T18:59:12.171Z,16.76
2022-12-08T19:02:15.481Z,16.89
2022-12-08T19:05:19.222Z,16.96
2022-12-08T19:08:23.430Z,17.03
2022-12-08T19:11:29.824Z,17.04
2022-12-08T19:14:34.745Z,17.00
2022-12-08T19:17:37.957Z,16.94
2022-12-08T19:20:40.011Z,17.03
2022-12-08T19:23:43.820Z,17.02
2022-12-08T19:26:46.535Z,17.00
2022-12-08T19:29:50.295Z,16.96
2022-12-08T19:32:53.498Z,17.03
2022-12-08T19:35:56.158Z,17.03
2022-12-08T19:39:17.107Z,17.02
2022-12-08T19:42:39.535Z,17.04
2022-12-08T19:45:42.257Z,17.13
2022-12-08T19:48:45.752Z,17.09
2022-12-08T19:51:47.635Z,17.07
2022-12-08T19:54:50.514Z,17.09
2022-12-08T19:57:54.107Z,17.06
2022-12-08T20:00:57.816Z,17.09
2022-12-08T20:04:01.999Z,17.03
2022-12-08T20:07:05.775Z,17.04
2022-12-08T20:10:16.099Z,17.04
2022-12-08T20:13:38.022Z,17.09
2022-12-08T20:16:42.418Z,17.13
2022-12-08T20:19:46.327Z,17.13
2022-12-08T20:22:50.902Z,16.99
2022-12-08T20:25:55.787Z,17.09
2022-12-08T20:28:58.481Z,17.37
2022-12-08T20:32:02.362Z,17.35
2022-12-08T20:35:05.474Z,17.09
2022-12-08T20:38:10.189Z,17.19
2022-12-08T20:41:16.247Z,17.30
2022-12-08T20:44:20.126Z,17.38
2022-12-08T20:47:23.305Z,17.34
2022-12-08T20:50:27.535Z,17.27
2022-12-08T20:53:30.671Z,14.91
2022-12-08T20:56:33.594Z,15.32
2022-12-08T20:59:35.651Z,15.90
2022-12-08T21:02:43.240Z,16.60
2022-12-08T21:05:51.762Z,16.68
2022-12-08T21:08:55.132Z,16.73
2022-12-08T21:11:57.771Z,16.72
2022-12-08T21:15:00.394Z,14.95
2022-12-08T21:18:03.248Z,13.86
2022-12-08T21:21:10.612Z,15.80
2022-12-08T21:24:13.237Z,16.42
2022-12-08T21:27:16.429Z,16.60
2022-12-08T21:30:19.671Z,16.87
2022-12-08T21:33:22.836Z,16.99
2022-12-08T21:36:26.274Z,16.99
2022-12-08T21:39:29.170Z,17.00
2022-12-08T21:42:43.867Z,16.99
2022-12-08T21:45:47.686Z,17.02
2022-12-08T21:48:50.167Z,17.07
2022-12-08T21:51:52.896Z,16.97
2022-12-08T21:54:55.162Z,17.03
2022-12-08T21:58:01.003Z,16.96
2022-12-08T22:01:11.332Z,16.79
2022-12-08T22:04:18.397Z,16.87
2022-12-08T22:07:21.687Z,16.89
2022-12-08T22:10:25.019Z,16.68
2022-12-08T22:13:27.306Z,16.75
2022-12-08T22:16:29.898Z,16.82
2022-12-08T22:19:32.279Z,16.59
2022-12-08T22:22:35.381Z,15.37
2022-12-08T22:25:38.006Z,12.95
2022-12-08T22:28:43.313Z,13.77
2022-12-08T22:31:45.657Z,14.81
2022-12-08T22:34:48.112Z,13.09
2022-12-08T22:37:50.793Z,12.94
2022-12-08T22:40:54.387Z,14.78
2022-12-08T22:43:57.065Z,15.87
2022-12-08T22:47:00.402Z,16.35
2022-12-08T22:50:03.895Z,16.55
2022-12-08T22:53:07.478Z,16.72
2022-12-08T22:56:13.753Z,16.80
2022-12-08T22:59:16.279Z,16.86
2022-12-08T23:02:18.389Z,16.92
2022-12-08T23:05:21.189Z,16.92
2022-12-08T23:08:24.818Z,16.92
2022-12-08T23:11:31.476Z,16.92
2022-12-08T23:14:33.752Z,16.86
2022-12-08T23:17:36.540Z,16.92
2022-12-08T23:20:39.136Z,16.99
2022-12-08T23:23:41.944Z,16.94
2022-12-08T23:26:44.403Z,17.00
2022-12-08T23:29:47.190Z,16.99
2022-12-08T23:32:50.635Z,17.00
2022-12-08T23:35:59.210Z,17.03
2022-12-08T23:39:01.890Z,17.14
2022-12-08T23:42:05.343Z,17.13
2022-12-08T23:45:08.975Z,17.10
2022-12-08T23:48:11.962Z,17.07
2022-12-08T23:51:15.151Z,17.07
2022-12-08T23:54:18.342Z,17.09
2022-12-08T23:57:21.765Z,17.06
